createdAt,value
2022-10-12T00:01:59.583Z,71.70
2022-10-12T00:05:03.672Z,72.17
2022-10-12T00:08:06.599Z,72.21
2022-10-12T00:11:12.539Z,72.56
2022-10-12T00:14:15.286Z,73.21
2022-10-12T00:17:17.966Z,72.52
2022-10-12T00:20:21.895Z,73.58
2022-10-12T00:23:24.578Z,72.50
2022-10-12T00:26:29.041Z,72.64
2022-10-12T00:29:31.803Z,72.52
2022-10-12T00:32:34.481Z,72.17
2022-10-12T00:35:38.439Z,73.23
2022-10-12T00:38:41.049Z,72.75
2022-10-12T00:41:45.062Z,72.71
2022-10-12T00:44:49.823Z,72.39
2022-10-12T00:47:56.888Z,72.85
2022-10-12T00:51:03.645Z,72.11
2022-10-12T00:54:10.359Z,72.87
2022-10-12T00:57:15.746Z,73.06
2022-10-12T01:00:20.118Z,72.61
2022-10-12T01:03:24.188Z,72.20
2022-10-12T01:06:28.225Z,72.74
2022-10-12T01:09:31.474Z,72.71
2022-10-12T01:12:35.431Z,72.22
2022-10-12T01:15:43.887Z,72.10
2022-10-12T01:18:51.555Z,72.24
2022-10-12T01:22:01.997Z,72.76
2022-10-12T01:25:17.718Z,72.44
2022-10-12T01:28:31.181Z,72.42
2022-10-12T01:31:42.079Z,72.38
2022-10-12T01:34:48.811Z,72.18
2022-10-12T01:37:59.361Z,71.34
2022-10-12T01:41:08.378Z,71.95
2022-10-12T01:44:11.056Z,72.14
2022-10-12T01:47:15.113Z,72.36
2022-10-12T01:50:18.741Z,72.47
2022-10-12T01:53:37.565Z,72.79
2022-10-12T01:56:49.251Z,72.52
2022-10-12T02:00:02.777Z,71.98
2022-10-12T02:03:15.263Z,72.45
2022-10-12T02:06:20.326Z,72.60
2022-10-12T02:09:27.583Z,71.81
2022-10-12T02:12:32.564Z,71.98
2022-10-12T02:15:38.021Z,71.95
2022-10-12T02:18:46.406Z,71.98
2022-10-12T02:21:51.371Z,71.78
2022-10-12T02:24:58.208Z,71.89
2022-10-12T02:28:06.427Z,72.04
2022-10-12T02:31:16.102Z,72.64
2022-10-12T02:34:25.343Z,72.43
2022-10-12T02:37:36.022Z,72.62
2022-10-12T02:40:43.638Z,72.45
2022-10-12T02:43:51.414Z,72.48
2022-10-12T02:46:55.824Z,72.47
2022-10-12T02:50:01.910Z,72.18
2022-10-12T02:53:05.640Z,72.50
2022-10-12T02:56:11.961Z,72.57
2022-10-12T02:59:15.159Z,72.33
2022-10-12T03:02:17.835Z,72.16
2022-10-12T03:05:21.717Z,72.22
2022-10-12T03:08:24.504Z,71.98
2022-10-12T03:11:27.269Z,72.02
2022-10-12T03:14:30.962Z,72.73
2022-10-12T03:17:33.627Z,73.02
2022-10-12T03:20:37.814Z,72.86
2022-10-12T03:23:40.535Z,72.92
2022-10-12T03:26:43.137Z,73.42
2022-10-12T03:29:45.666Z,72.82
2022-10-12T03:32:48.237Z,72.59
2022-10-12T03:35:52.557Z,72.48
2022-10-12T03:38:55.361Z,72.70
2022-10-12T03:41:58.036Z,72.73
2022-10-12T03:45:00.589Z,72.46
2022-10-12T03:48:05.148Z,72.12
2022-10-12T03:51:09.304Z,72.89
2022-10-12T03:54:11.982Z,72.65
2022-10-12T03:57:14.533Z,72.55
2022-10-12T04:00:17.582Z,73.07
2022-10-12T04:03:20.137Z,72.67
2022-10-12T04:06:24.155Z,72.26
2022-10-12T04:09:26.886Z,72.38
2022-10-12T04:12:29.583Z,72.19
2022-10-12T04:15:32.183Z,72.74
2022-10-12T04:18:35.154Z,72.72
2022-10-12T04:21:39.102Z,72.41
2022-10-12T04:24:41.821Z,72.40
2022-10-12T04:27:44.417Z,72.52
2022-10-12T04:30:47.737Z,73.07
2022-10-12T04:33:50.436Z,73.38
2022-10-12T04:36:54.350Z,73.03
2022-10-12T04:39:57.094Z,72.99
2022-10-12T04:42:59.765Z,72.79
2022-10-12T04:46:02.310Z,72.71
2022-10-12T04:49:04.890Z,73.04
2022-10-12T04:52:08.808Z,72.85
2022-10-12T04:55:11.470Z,72.71
2022-10-12T04:58:14.595Z,72.97
2022-10-12T05:01:17.387Z,72.83
2022-10-12T05:04:20.212Z,72.88
2022-10-12T05:07:24.085Z,72.36
2022-10-12T05:10:26.800Z,72.36
2022-10-12T05:13:29.913Z,73.01
2022-10-12T05:16:32.478Z,72.72
2022-10-12T05:19:35.075Z,72.84
2022-10-12T05:22:48.020Z,73.84
2022-10-12T05:25:50.711Z,73.69
2022-10-12T05:28:53.260Z,73.96
2022-10-12T05:31:55.888Z,73.36
2022-10-12T05:34:58.566Z,73.70
2022-10-12T05:38:02.439Z,73.89
2022-10-12T05:41:05.530Z,72.87
2022-10-12T05:44:08.410Z,73.57
2022-10-12T05:47:11.546Z,73.40
2022-10-12T05:50:14.129Z,72.95
2022-10-12T05:53:18.030Z,73.72
2022-10-12T05:56:20.710Z,72.80
2022-10-12T05:59:23.283Z,72.78
2022-10-12T06:02:26.018Z,72.40
2022-10-12T06:05:28.715Z,72.65
2022-10-12T06:08:33.074Z,73.22
2022-10-12T06:11:36.616Z,72.80
2022-10-12T06:14:39.417Z,73.18
2022-10-12T06:17:42.125Z,73.68
2022-10-12T06:20:47.718Z,72.92
2022-10-12T06:23:51.636Z,73.16
2022-10-12T06:26:54.378Z,73.20
2022-10-12T06:29:56.952Z,73.29
2022-10-12T06:32:59.639Z,73.07
2022-10-12T06:36:02.403Z,72.21
2022-10-12T06:39:06.301Z,71.31
2022-10-12T06:42:10.142Z,70.19
2022-10-12T06:45:13.240Z,68.54
2022-10-12T06:48:18.520Z,67.31
2022-10-12T06:51:21.674Z,66.72
2022-10-12T06:54:25.645Z,65.88
2022-10-12T06:57:28.455Z,64.29
2022-10-12T07:00:31.030Z,63.11
2022-10-12T07:03:33.950Z,61.88
2022-10-12T07:06:36.660Z,61.35
2022-10-12T07:09:40.655Z,60.56
2022-10-12T07:12:43.348Z,60.05
2022-10-12T07:15:50.278Z,60.45
2022-10-12T07:18:52.854Z,59.87
2022-10-12T07:21:55.416Z,59.93
2022-10-12T07:24:59.382Z,60.06
2022-10-12T07:28:05.245Z,61.53
2022-10-12T07:31:09.621Z,61.78
2022-10-12T07:34:12.181Z,63.00
2022-10-12T07:37:15.468Z,63.91
2022-10-12T07:40:19.443Z,64.43
2022-10-12T07:43:22.017Z,64.48
2022-10-12T07:46:25.941Z,65.51
2022-10-12T07:49:28.773Z,66.00
2022-10-12T07:52:32.521Z,65.00
2022-10-12T07:55:36.655Z,65.27
2022-10-12T07:58:39.369Z,65.56
2022-10-12T08:01:42.078Z,64.63
2022-10-12T08:04:44.794Z,64.52
2022-10-12T08:07:47.448Z,64.41
2022-10-12T08:10:51.407Z,64.65
2022-10-12T08:13:54.219Z,64.86
2022-10-12T08:16:57.820Z,63.11
2022-10-12T08:20:00.536Z,63.82
2022-10-12T08:23:03.211Z,63.75
2022-10-12T08:26:08.774Z,62.55
2022-10-12T08:29:11.859Z,61.75
2022-10-12T08:32:14.454Z,63.47
2022-10-12T08:35:17.165Z,62.92
2022-10-12T08:38:19.885Z,63.32
2022-10-12T08:41:40.797Z,61.44
2022-10-12T08:45:05.989Z,61.26
2022-10-12T08:48:14.803Z,62.44
2022-10-12T08:51:22.071Z,62.61
2022-10-12T08:54:29.828Z,60.28
2022-10-12T08:57:35.343Z,59.31
2022-10-12T09:00:39.831Z,59.25
2022-10-12T09:03:54.635Z,58.37
2022-10-12T09:07:01.683Z,59.59
2022-10-12T09:10:18.761Z,59.64
2022-10-12T09:13:37.847Z,58.21
2022-10-12T09:16:44.542Z,59.13
2022-10-12T09:19:47.080Z,58.60
2022-10-12T09:22:51.500Z,58.79
2022-10-12T09:25:57.967Z,57.87
2022-10-12T09:29:04.068Z,58.40
2022-10-12T09:32:21.304Z,56.22
2022-10-12T09:35:23.902Z,55.51
2022-10-12T09:38:26.786Z,54.87
2022-10-12T09:41:34.681Z,54.34
2022-10-12T09:44:41.149Z,53.14
2022-10-12T09:47:44.258Z,51.76
2022-10-12T09:50:52.983Z,49.09
2022-10-12T09:53:58.778Z,47.70
2022-10-12T09:57:01.569Z,46.45
2022-10-12T10:00:08.502Z,45.96
2022-10-12T10:03:29.236Z,44.32
2022-10-12T10:06:34.370Z,42.62
2022-10-12T10:09:37.445Z,43.72
2022-10-12T10:12:48.406Z,39.19
2022-10-12T10:16:02.476Z,40.29
2022-10-12T10:19:05.302Z,40.81
2022-10-12T10:22:07.953Z,39.16
2022-10-12T10:25:21.531Z,40.13
2022-10-12T10:28:26.377Z,38.44
2022-10-12T10:31:30.617Z,37.65
2022-10-12T10:34:33.337Z,39.22
2022-10-12T10:37:36.685Z,38.26
2022-10-12T10:40:39.815Z,37.70
2022-10-12T10:43:48.648Z,36.92
2022-10-12T10:46:54.334Z,37.20
2022-10-12T10:49:59.244Z,37.84
2022-10-12T10:53:05.886Z,37.56
2022-10-12T10:56:12.331Z,36.55
2022-10-12T10:59:22.061Z,37.13
2022-10-12T11:02:34.675Z,35.16
2022-10-12T11:05:40.853Z,34.43
2022-10-12T11:08:45.487Z,35.72
2022-10-12T11:11:56.235Z,36.08
2022-10-12T11:15:07.783Z,37.71
2022-10-12T11:18:17.926Z,38.34
2022-10-12T11:21:26.007Z,38.64
2022-10-12T11:24:34.459Z,38.14
2022-10-12T11:27:38.743Z,38.83
2022-10-12T11:30:46.528Z,39.13
2022-10-12T11:33:53.592Z,39.07
2022-10-12T11:37:20.821Z,40.35
2022-10-12T11:40:47.662Z,40.73
2022-10-12T11:43:53.255Z,39.07
2022-10-12T11:47:01.745Z,37.09
2022-10-12T11:50:15.138Z,37.99
2022-10-12T11:53:26.442Z,38.80
2022-10-12T11:56:36.055Z,39.70
2022-10-12T11:59:43.595Z,39.17
2022-10-12T12:02:52.405Z,38.41
2022-10-12T12:05:56.669Z,37.74
2022-10-12T12:09:06.268Z,37.32
2022-10-12T12:12:27.563Z,38.70
2022-10-12T12:15:30.401Z,38.52
2022-10-12T12:18:53.675Z,37.54
2022-10-12T12:22:26.555Z,38.06
2022-10-12T12:25:33.856Z,38.90
2022-10-12T12:28:38.220Z,38.68
2022-10-12T12:31:43.890Z,36.98
2022-10-12T12:35:00.016Z,36.54
2022-10-12T12:38:18.598Z,36.27
2022-10-12T12:41:22.951Z,37.40
2022-10-12T12:44:41.252Z,36.12
2022-10-12T12:47:46.164Z,36.43
2022-10-12T12:51:04.406Z,36.85
2022-10-12T12:54:16.276Z,36.40
2022-10-12T12:57:34.883Z,37.16
2022-10-12T13:04:18.386Z,39.50
2022-10-12T13:07:44.204Z,39.47
2022-10-12T13:11:14.579Z,40.30
2022-10-12T13:14:34.869Z,39.92
2022-10-12T13:18:18.505Z,40.39
2022-10-12T13:21:29.351Z,39.57
2022-10-12T13:24:42.061Z,38.91
2022-10-12T13:27:49.396Z,39.00
2022-10-12T13:30:55.622Z,39.57
2022-10-12T13:34:06.413Z,40.23
2022-10-12T13:37:14.376Z,40.38
2022-10-12T13:40:30.363Z,40.26
2022-10-12T13:43:41.513Z,40.43
2022-10-12T13:46:45.710Z,39.81
2022-10-12T13:49:48.335Z,40.23
2022-10-12T13:52:55.460Z,39.39
2022-10-12T13:56:02.574Z,39.61
2022-10-12T13:59:11.232Z,40.12
2022-10-12T14:02:22.702Z,40.57
2022-10-12T14:05:27.540Z,41.15
2022-10-12T14:08:32.381Z,41.18
2022-10-12T14:11:36.112Z,41.43
2022-10-12T14:14:42.236Z,40.52
2022-10-12T14:17:45.495Z,41.53
2022-10-12T14:20:48.604Z,41.48
2022-10-12T14:23:54.096Z,41.08
2022-10-12T14:27:01.212Z,41.31
2022-10-12T14:30:16.644Z,42.16
2022-10-12T14:33:23.707Z,42.38
2022-10-12T14:36:27.831Z,42.39
2022-10-12T14:39:30.677Z,41.96
2022-10-12T14:42:35.218Z,42.14
2022-10-12T14:45:39.193Z,42.82
2022-10-12T14:48:42.014Z,42.81
2022-10-12T14:51:45.106Z,42.72
2022-10-12T14:54:51.333Z,43.15
2022-10-12T14:57:54.210Z,43.30
2022-10-12T15:00:58.285Z,42.94
2022-10-12T15:04:00.859Z,43.02
2022-10-12T15:07:03.602Z,43.41
2022-10-12T15:10:07.118Z,43.72
2022-10-12T15:13:13.344Z,44.28
2022-10-12T15:16:21.485Z,44.63
2022-10-12T15:19:24.204Z,44.08
2022-10-12T15:22:28.955Z,44.80
2022-10-12T15:25:43.406Z,44.61
2022-10-12T15:28:46.878Z,44.97
2022-10-12T15:31:51.429Z,45.61
2022-10-12T15:34:54.015Z,45.55
2022-10-12T15:37:57.344Z,45.99
2022-10-12T15:40:59.908Z,46.68
2022-10-12T15:44:03.051Z,47.63
2022-10-12T15:47:07.027Z,46.77
2022-10-12T15:50:09.916Z,47.40
2022-10-12T15:53:16.767Z,48.33
2022-10-12T15:56:19.966Z,48.67
2022-10-12T15:59:22.672Z,50.25
2022-10-12T16:02:26.647Z,51.73
2022-10-12T16:05:32.042Z,52.55
2022-10-12T16:08:34.764Z,53.43
2022-10-12T16:11:37.357Z,54.42
2022-10-12T16:14:40.097Z,54.50
2022-10-12T16:17:44.018Z,55.11
2022-10-12T16:20:53.324Z,55.32
2022-10-12T16:23:57.136Z,56.10
2022-10-12T16:27:00.169Z,55.70
2022-10-12T16:30:03.238Z,55.76
2022-10-12T16:33:07.287Z,56.52
2022-10-12T16:36:11.848Z,56.85
2022-10-12T16:39:14.514Z,57.00
2022-10-12T16:42:17.210Z,57.44
2022-10-12T16:45:19.963Z,57.41
2022-10-12T16:48:23.872Z,57.10
2022-10-12T16:51:26.435Z,57.84
2022-10-12T16:54:29.013Z,57.61
2022-10-12T16:57:32.086Z,57.81
2022-10-12T17:00:34.811Z,57.34
2022-10-12T17:03:38.976Z,58.08
2022-10-12T17:06:41.830Z,58.12
2022-10-12T17:09:44.604Z,58.75
2022-10-12T17:12:47.308Z,58.14
2022-10-12T17:15:50.123Z,59.08
2022-10-12T17:18:59.137Z,59.05
2022-10-12T17:22:04.706Z,59.28
2022-10-12T17:25:07.981Z,60.23
2022-10-12T17:28:10.909Z,60.04
2022-10-12T17:31:13.894Z,60.72
2022-10-12T17:34:21.292Z,61.02
2022-10-12T17:37:24.038Z,61.03
2022-10-12T17:40:26.950Z,61.04
2022-10-12T17:43:29.733Z,61.10
2022-10-12T17:46:32.593Z,61.55
2022-10-12T17:49:36.666Z,62.06
2022-10-12T17:52:40.475Z,61.97
2022-10-12T17:55:48.745Z,61.99
2022-10-12T17:58:54.927Z,62.66
2022-10-12T18:01:57.489Z,62.81
2022-10-12T18:05:01.402Z,62.74
2022-10-12T18:08:03.975Z,63.24
2022-10-12T18:11:08.010Z,63.83
2022-10-12T18:14:11.813Z,63.65
2022-10-12T18:17:14.617Z,64.33
2022-10-12T18:20:19.493Z,64.13
2022-10-12T18:23:22.408Z,64.16
2022-10-12T18:26:27.819Z,64.44
2022-10-12T18:29:30.922Z,64.57
2022-10-12T18:32:34.045Z,64.80
2022-10-12T18:35:41.690Z,65.00
2022-10-12T18:38:44.550Z,65.28
2022-10-12T18:41:51.602Z,65.33
2022-10-12T18:44:54.867Z,65.53
2022-10-12T18:47:57.857Z,65.40
2022-10-12T18:51:06.470Z,65.62
2022-10-12T18:54:12.773Z,65.64
2022-10-12T18:57:15.586Z,66.00
2022-10-12T19:00:19.028Z,65.83
2022-10-12T19:03:22.263Z,65.86
2022-10-12T19:06:28.965Z,66.18
2022-10-12T19:09:32.899Z,66.75
2022-10-12T19:12:36.043Z,66.58
2022-10-12T19:15:39.287Z,66.74
2022-10-12T19:18:42.671Z,66.45
2022-10-12T19:21:46.845Z,66.71
2022-10-12T19:24:49.594Z,66.57
2022-10-12T19:27:52.140Z,67.04
2022-10-12T19:30:54.938Z,66.53
2022-10-12T19:33:58.927Z,67.07
2022-10-12T19:37:03.207Z,67.29
2022-10-12T19:40:07.901Z,67.85
2022-10-12T19:43:10.791Z,67.61
2022-10-12T19:46:14.810Z,67.77
2022-10-12T19:49:18.992Z,67.50
2022-10-12T19:52:23.075Z,68.58
2022-10-12T19:55:26.208Z,68.53
2022-10-12T19:58:29.626Z,68.54
2022-10-12T20:01:34.923Z,68.77
2022-10-12T20:04:38.007Z,68.64
2022-10-12T20:07:42.321Z,68.41
2022-10-12T20:10:46.767Z,68.45
2022-10-12T20:13:53.612Z,68.18
2022-10-12T20:16:56.772Z,68.53
2022-10-12T20:19:59.995Z,68.80
2022-10-12T20:23:04.862Z,69.66
2022-10-12T20:26:10.846Z,69.61
2022-10-12T20:29:13.870Z,69.83
2022-10-12T20:32:17.091Z,69.62
2022-10-12T20:35:19.900Z,69.11
2022-10-12T20:38:25.898Z,69.18
2022-10-12T20:41:29.229Z,70.05
2022-10-12T20:44:32.078Z,69.86
2022-10-12T20:47:35.468Z,69.80
2022-10-12T20:50:38.686Z,69.43
2022-10-12T20:53:42.970Z,69.76
2022-10-12T20:56:49.531Z,70.21
2022-10-12T20:59:52.552Z,70.55
2022-10-12T21:02:55.274Z,69.94
2022-10-12T21:05:58.626Z,70.42
2022-10-12T21:09:02.733Z,70.08
2022-10-12T21:12:05.850Z,70.39
2022-10-12T21:15:09.426Z,70.22
2022-10-12T21:18:12.546Z,70.53
2022-10-12T21:21:19.661Z,70.50
2022-10-12T21:24:23.935Z,70.51
2022-10-12T21:27:26.817Z,70.33
2022-10-12T21:30:29.516Z,70.35
2022-10-12T21:33:32.493Z,71.15
2022-10-12T21:36:36.597Z,70.85
2022-10-12T21:39:40.861Z,70.27
2022-10-12T21:42:43.770Z,70.60
2022-10-12T21:45:46.588Z,70.46
2022-10-12T21:48:50.150Z,70.57
2022-10-12T21:51:54.274Z,70.79
2022-10-12T21:54:58.706Z,70.13
2022-10-12T21:58:02.324Z,70.50
2022-10-12T22:01:07.374Z,70.61
2022-10-12T22:04:13.719Z,70.73
2022-10-12T22:07:16.575Z,70.23
2022-10-12T22:10:20.806Z,70.12
2022-10-12T22:13:23.694Z,71.01
2022-10-12T22:16:27.903Z,70.43
2022-10-12T22:19:32.301Z,71.46
2022-10-12T22:22:35.224Z,71.50
2022-10-12T22:25:39.353Z,71.22
2022-10-12T22:28:42.105Z,70.92
2022-10-12T22:31:46.468Z,70.63
2022-10-12T22:34:49.233Z,70.43
2022-10-12T22:37:52.098Z,70.49
2022-10-12T22:40:57.315Z,71.42
2022-10-12T22:44:00.115Z,70.93
2022-10-12T22:47:03.128Z,70.43
2022-10-12T22:50:06.652Z,70.57
2022-10-12T22:53:09.691Z,71.02
2022-10-12T22:56:17.468Z,71.29
2022-10-12T22:59:21.124Z,70.95
2022-10-12T23:02:23.935Z,70.95
2022-10-12T23:05:27.028Z,71.57
2022-10-12T23:08:30.536Z,71.41
2022-10-12T23:11:34.755Z,70.56
2022-10-12T23:14:37.675Z,71.37
2022-10-12T23:17:43.301Z,71.47
2022-10-12T23:20:46.200Z,70.94
2022-10-12T23:23:49.487Z,71.26
2022-10-12T23:26:53.450Z,71.16
2022-10-12T23:29:56.216Z,71.94
2022-10-12T23:32:58.846Z,71.79
2022-10-12T23:36:03.524Z,71.33
2022-10-12T23:39:06.559Z,71.78
2022-10-12T23:42:10.634Z,71.38
2022-10-12T23:45:13.355Z,72.13
2022-10-12T23:48:16.718Z,72.13
2022-10-12T23:51:19.526Z,71.94
2022-10-12T23:54:22.288Z,72.11
2022-10-12T23:57:45.807Z,71.06
